createdAt,value
2023-04-22T00:01:41.112Z,0
2023-04-22T00:06:58.495Z,0
2023-04-22T00:12:33.007Z,0
2023-04-22T00:17:50.605Z,0
2023-04-22T00:23:08.170Z,0
2023-04-22T00:28:25.620Z,0
2023-04-22T00:33:47.019Z,0
2023-04-22T00:39:04.591Z,0
2023-04-22T00:44:21.907Z,0
2023-04-22T00:49:56.889Z,0
2023-04-22T00:55:14.447Z,0
2023-04-22T01:00:31.865Z,0
2023-04-22T01:05:49.304Z,0
2023-04-22T01:11:06.821Z,0
2023-04-22T01:16:24.090Z,0
2023-04-22T01:21:41.431Z,0
2023-04-22T01:27:00.839Z,0
2023-04-22T01:32:18.763Z,0
2023-04-22T01:42:56.591Z,0
2023-04-22T01:48:19.650Z,0
2023-04-22T01:53:37.170Z,0
2023-04-22T01:58:54.495Z,0
2023-04-22T02:04:11.866Z,0
2023-04-22T02:09:29.662Z,0
2023-04-22T02:14:46.726Z,0
2023-04-22T02:20:04.221Z,0
2023-04-22T02:25:21.662Z,0
2023-04-22T02:30:56.144Z,0
2023-04-22T02:36:14.137Z,0
2023-04-22T02:41:31.155Z,0
2023-04-22T02:46:48.588Z,0
2023-04-22T02:52:05.931Z,0
2023-04-22T02:57:23.392Z,0
2023-04-22T03:02:40.728Z,0
2023-04-22T03:07:58.110Z,0
2023-04-22T03:13:15.269Z,0
2023-04-22T03:18:32.609Z,0
2023-04-22T03:23:49.784Z,0
2023-04-22T03:29:07.121Z,0
2023-04-22T03:39:44.947Z,0
2023-04-22T03:45:12.641Z,0
2023-04-22T03:50:30.050Z,0
2023-04-22T03:55:47.347Z,0
2023-04-22T04:01:15.219Z,0
2023-04-22T04:06:32.603Z,0
2023-04-22T04:11:49.453Z,23.3
2023-04-22T04:17:06.679Z,53.7
2023-04-22T04:22:26.489Z,112.1
2023-04-22T04:27:43.523Z,197.5
2023-04-22T04:33:00.674Z,323.3
2023-04-22T04:38:38.790Z,441.7
2023-04-22T04:43:56.063Z,759.6
2023-04-22T04:49:13.159Z,1390.4
2023-04-22T04:54:30.287Z,2022.9
2023-04-22T04:59:47.558Z,2467.5
2023-04-22T05:05:07.920Z,2430
2023-04-22T05:10:34.263Z,2526.2
2023-04-22T05:15:51.605Z,2634.2
2023-04-22T05:21:09.086Z,3312.5
2023-04-22T06:09:33.909Z,6102.9
2023-04-22T06:15:14.537Z,6228.3
2023-04-22T06:20:31.743Z,6392.5
2023-04-22T06:25:48.749Z,5894.6
2023-04-22T06:31:06.039Z,8062.5
2023-04-22T06:36:26.054Z,9965.8
2023-04-22T06:41:44.349Z,9832.1
2023-04-22T06:47:01.211Z,6128.8
2023-04-22T06:52:18.395Z,7078.3
2023-04-22T07:02:55.781Z,8184.6
2023-04-22T07:08:13.365Z,14327.1
2023-04-22T07:13:30.132Z,19273.3
2023-04-22T07:18:47.639Z,19156.7
2023-04-22T07:24:05.607Z,9721.2
2023-04-22T07:29:22.811Z,13461.7
2023-04-22T07:34:42.322Z,12272.1
2023-04-22T07:39:59.731Z,15281.7
2023-04-22T07:50:38.986Z,17280
2023-04-22T07:55:56.472Z,22402.9
2023-04-22T08:01:13.286Z,13570.8
2023-04-22T08:06:29.912Z,18960.8
2023-04-22T08:17:08.426Z,30260
2023-04-22T08:22:26.196Z,27570
2023-04-22T08:27:44.011Z,31147.5
2023-04-22T08:38:10.959Z,33893.3
2023-04-22T08:43:28.908Z,37245
2023-04-22T08:48:46.299Z,37190.8
2023-04-22T08:54:04.281Z,44961.7
2023-04-22T08:59:21.404Z,42081.7
2023-04-22T09:04:39.069Z,33608.3
2023-04-22T09:10:07.491Z,31858.3
2023-04-22T09:15:25.003Z,39370
2023-04-22T09:20:42.211Z,31815
2023-04-22T10:09:42.110Z,49250.8
2023-04-22T10:14:59.198Z,57652.7
2023-04-22T10:20:17.184Z,55250.3
2023-04-22T10:25:33.014Z,32570.8
2023-04-22T10:30:51.415Z,55954.7
2023-04-22T10:36:06.893Z,29987.5
2023-04-22T10:41:22.753Z,42223.3
2023-04-22T10:46:40.920Z,25450.4
2023-04-22T10:51:56.642Z,30898.3
2023-04-22T10:57:13.248Z,20160
2023-04-22T11:02:29.452Z,21577.9
2023-04-22T11:07:46.217Z,24722.5
2023-04-22T11:13:06.267Z,33890
2023-04-22T11:18:23.550Z,19285
2023-04-22T11:23:38.688Z,16909.6
2023-04-22T11:28:54.738Z,16808.3
2023-04-22T11:34:11.786Z,21728.3
2023-04-22T11:44:48.717Z,19328.3
2023-04-22T11:50:05.797Z,26595.4
2023-04-22T11:55:26.056Z,24496.2
2023-04-22T12:00:43.140Z,20685
2023-04-22T12:05:59.442Z,15433.7
2023-04-22T12:11:15.822Z,11270.8
2023-04-22T12:21:52.043Z,15365.8
2023-04-22T12:27:09.316Z,14253.3
2023-04-22T12:32:33.808Z,13634.2
2023-04-22T12:37:52.459Z,14946.2
2023-04-22T12:43:10.233Z,21357.5
2023-04-22T12:48:27.243Z,15505.8
2023-04-22T12:53:44.921Z,28138.3
2023-04-22T12:59:02.574Z,28436.7
2023-04-22T13:04:19.598Z,18795.8
2023-04-22T13:14:54.728Z,6330.8
2023-04-22T13:20:11.008Z,5714.6
2023-04-22T13:25:27.521Z,6662.1
2023-04-22T13:30:44.480Z,5411.7
2023-04-22T13:36:01.672Z,6400.4
2023-04-22T13:41:18.947Z,7003.3
2023-04-22T13:47:21.065Z,6761.7
2023-04-22T13:52:38.535Z,7531.2
2023-04-22T13:57:55.602Z,6528.8
2023-04-22T14:03:12.909Z,8346.2
2023-04-22T14:08:30.052Z,6228.8
2023-04-22T14:13:46.924Z,7842.1
2023-04-22T14:19:21.672Z,12192.9
2023-04-22T14:24:40.267Z,13493.3
2023-04-22T14:29:57.180Z,10276.7
2023-04-22T14:35:14.470Z,12145.8
2023-04-22T14:40:39.578Z,15798.7
2023-04-22T14:45:56.929Z,12051.7
2023-04-22T14:51:16.408Z,13759.2
2023-04-22T14:56:33.484Z,7860.8
2023-04-22T15:01:50.135Z,9890
2023-04-22T15:07:07.659Z,8400.4
2023-04-22T15:12:24.316Z,7631.3
2023-04-22T15:17:41.430Z,7291.3
2023-04-22T15:23:01.055Z,6740.8
2023-04-22T15:28:17.884Z,4582.1
2023-04-22T15:33:34.648Z,6372.5
2023-04-22T15:38:51.570Z,7233.3
2023-04-22T15:44:09.218Z,5761.7
2023-04-22T15:49:26.914Z,4588.7
2023-04-22T15:54:44.078Z,4137.5
2023-04-22T16:00:09.837Z,4714.2
2023-04-22T16:05:28.097Z,4874.2
2023-04-22T16:10:47.774Z,6806.7
2023-04-22T16:16:04.758Z,6218.3
2023-04-22T16:21:24.134Z,4860
2023-04-22T16:26:41.293Z,4490
2023-04-22T16:32:05.681Z,4640
2023-04-22T16:37:23.401Z,4191.3
2023-04-22T16:42:40.245Z,4417.1
2023-04-22T16:47:57.291Z,4713.7
2023-04-22T16:53:14.354Z,4691.3
2023-04-22T17:03:52.267Z,3851.7
2023-04-22T17:09:09.253Z,3574.6
2023-04-22T17:14:47.127Z,4106.7
2023-04-22T17:20:04.710Z,3931.7
2023-04-22T17:25:21.647Z,4090.4
2023-04-22T17:30:42.114Z,4060.4
2023-04-22T17:35:59.338Z,3029.6
2023-04-22T17:41:16.545Z,2256.7
2023-04-22T17:46:33.716Z,1896.2
2023-04-22T17:51:53.240Z,1691.3
2023-04-22T17:57:10.520Z,717.5
2023-04-22T18:02:27.381Z,162.5
2023-04-22T18:07:44.442Z,213.3
2023-04-22T18:13:01.512Z,173.3
2023-04-22T18:18:26.089Z,92.9
2023-04-22T18:23:43.468Z,55.4
2023-04-22T18:29:00.996Z,57.1
2023-04-22T18:39:36.622Z,62.1
2023-04-22T18:44:54.297Z,54.6
2023-04-22T18:50:11.335Z,36.2
2023-04-22T18:55:28.780Z,0.9
2023-04-22T19:00:46.343Z,0
2023-04-22T19:06:03.829Z,1.2
2023-04-22T19:11:28.411Z,1.1
2023-04-22T19:16:46.175Z,0.7
2023-04-22T19:22:31.676Z,0.2
2023-04-22T19:27:49.571Z,0
2023-04-22T19:33:07.324Z,0
2023-04-22T19:38:24.623Z,0
2023-04-22T19:48:51.876Z,0
2023-04-22T19:54:09.411Z,0
2023-04-22T19:59:26.944Z,0
2023-04-22T20:04:44.540Z,0
2023-04-22T20:10:01.930Z,0
2023-04-22T20:15:19.093Z,0
2023-04-22T20:20:36.671Z,0
2023-04-22T20:25:53.661Z,0
2023-04-22T20:31:15.207Z,0
2023-04-22T20:36:32.533Z,0
2023-04-22T20:41:49.949Z,0
2023-04-22T20:47:07.483Z,0
2023-04-22T20:52:27.083Z,0
2023-04-22T20:58:01.414Z,0
2023-04-22T21:03:19.245Z,0
2023-04-22T21:08:54.133Z,0
2023-04-22T21:14:11.646Z,0
2023-04-22T21:19:28.761Z,0
2023-04-22T21:24:46.082Z,0
2023-04-22T21:30:03.350Z,0
2023-04-22T21:35:41.837Z,0
2023-04-22T21:40:59.641Z,0
2023-04-22T21:46:16.997Z,0
2023-04-22T21:51:34.326Z,0
2023-04-22T21:56:51.628Z,0
2023-04-22T22:02:12.923Z,0
2023-04-22T22:07:30.614Z,0
2023-04-22T22:13:02.706Z,0
2023-04-22T22:18:21.945Z,0
2023-04-22T22:23:42.101Z,0
2023-04-22T22:39:33.628Z,0
2023-04-22T22:44:50.910Z,0
2023-04-22T22:50:08.190Z,0
2023-04-22T22:55:25.604Z,0
2023-04-22T23:00:42.948Z,0
2023-04-22T23:06:02.674Z,0
2023-04-22T23:11:20.192Z,0
2023-04-22T23:16:46.343Z,0
2023-04-22T23:22:04.071Z,0
2023-04-22T23:27:21.483Z,0
2023-04-22T23:32:38.994Z,0
2023-04-22T23:37:56.278Z,0
2023-04-22T23:43:13.392Z,0
2023-04-22T23:48:40.198Z,0
2023-04-22T23:53:57.698Z,0
2023-04-22T23:59:15.043Z,0
